Baltimore, Maryland
Traffic Map
Current Weather Conditions
Baltimore, Maryland
Scattered Clouds
Scattered Clouds
58°
Feels Like: 58°
Wind Chill: 58° Ceiling: Unl
Heat Index: 58° Visibility: 10mi
Dew Point: 56° Wind: 13mph
Humidity: 93% Direction: 190° (S)
Pressure: 29.29in Gusts: 20mph
Raw Report DataKBWI 190754Z 19011G17KT 10SM FEW080 SCT110 14/13 A2929 RMK AO2 RAE42 SLP918 P0003 T01440133
Traffic Incident Summary
Active as of:
Severity:
Category:
InformationThere was an issue retrieving the traffic information for this location. Please try a different location or try again shortly.
Advertisements